createdAt,value
2022-10-11T00:00:20.631Z,94.35
2022-10-11T00:02:48.322Z,94.31
2022-10-11T00:05:16.071Z,94.46
2022-10-11T00:07:43.590Z,94.03
2022-10-11T00:10:11.294Z,94.49
2022-10-11T00:12:38.935Z,94.62
2022-10-11T00:15:07.814Z,94.04
2022-10-11T00:17:35.528Z,93.85
2022-10-11T00:20:04.403Z,93.85
2022-10-11T00:22:31.801Z,93.00
2022-10-11T00:24:59.563Z,92.53
2022-10-11T00:27:27.416Z,92.12
2022-10-11T00:29:54.897Z,91.97
2022-10-11T00:32:22.860Z,91.57
2022-10-11T00:34:50.312Z,91.71
2022-10-11T00:37:18.830Z,91.86
2022-10-11T00:39:46.651Z,92.05
2022-10-11T00:42:16.600Z,92.24
2022-10-11T00:44:47.271Z,91.82
2022-10-11T00:47:21.843Z,92.02
2022-10-11T00:49:56.387Z,92.72
2022-10-11T00:52:37.395Z,92.84
2022-10-11T00:55:13.235Z,92.89
2022-10-11T00:57:43.964Z,92.89
2022-10-11T01:00:13.811Z,92.81
2022-10-11T01:02:42.895Z,92.70
2022-10-11T01:05:30.336Z,92.81
2022-10-11T01:08:00.736Z,92.67
2022-10-11T01:10:29.032Z,92.53
2022-10-11T01:13:08.788Z,92.55
2022-10-11T01:15:47.736Z,92.90
2022-10-11T01:18:27.563Z,93.04
2022-10-11T01:21:07.225Z,92.89
2022-10-11T01:23:43.629Z,92.92
2022-10-11T01:26:38.421Z,92.99
2022-10-11T01:29:27.708Z,93.28
2022-10-11T01:32:34.184Z,93.22
2022-10-11T01:35:21.229Z,93.21
2022-10-11T01:37:59.617Z,93.49
2022-10-11T01:40:41.893Z,93.82
2022-10-11T01:43:10.187Z,93.70
2022-10-11T01:45:38.842Z,93.99
2022-10-11T01:48:12.537Z,94.03
2022-10-11T01:50:46.059Z,94.28
2022-10-11T01:53:19.591Z,93.55
2022-10-11T01:55:56.993Z,93.16
2022-10-11T01:58:39.339Z,92.53
2022-10-11T02:01:31.004Z,92.00
2022-10-11T02:04:24.377Z,91.86
2022-10-11T02:07:01.708Z,91.53
2022-10-11T02:09:50.932Z,91.24
2022-10-11T02:12:30.188Z,92.24
2022-10-11T02:14:59.644Z,92.74
2022-10-11T02:17:33.406Z,92.78
2022-10-11T02:20:06.817Z,92.38
2022-10-11T02:22:38.848Z,91.97
2022-10-11T02:25:10.628Z,91.55
2022-10-11T02:27:40.272Z,91.80
2022-10-11T02:30:09.963Z,91.85
2022-10-11T02:32:41.512Z,91.87
2022-10-11T02:35:11.452Z,92.27
2022-10-11T02:37:41.756Z,91.95
2022-10-11T02:40:29.601Z,92.23
2022-10-11T02:43:03.583Z,91.79
2022-10-11T02:45:48.279Z,91.82
2022-10-11T02:48:16.148Z,92.19
2022-10-11T02:50:44.385Z,93.04
2022-10-11T02:53:11.853Z,93.00
2022-10-11T02:55:39.444Z,92.90
2022-10-11T02:58:07.273Z,93.03
2022-10-11T03:00:34.697Z,92.13
2022-10-11T03:03:02.103Z,91.79
2022-10-11T03:05:29.777Z,91.74
2022-10-11T03:07:57.279Z,91.44
2022-10-11T03:10:24.670Z,91.20
2022-10-11T03:12:52.368Z,91.09
2022-10-11T03:15:19.787Z,90.43
2022-10-11T03:17:47.279Z,90.83
2022-10-11T03:20:15.316Z,90.42
2022-10-11T03:22:42.740Z,90.34
2022-10-11T03:25:10.180Z,90.84
2022-10-11T03:27:38.024Z,90.41
2022-10-11T03:30:06.320Z,90.81
2022-10-11T03:32:33.793Z,90.56
2022-10-11T03:35:01.588Z,90.80
2022-10-11T03:37:29.056Z,90.47
2022-10-11T03:39:56.500Z,90.67
2022-10-11T03:42:24.280Z,91.16
2022-10-11T03:44:52.012Z,91.83
2022-10-11T03:47:20.036Z,92.03
2022-10-11T03:49:47.711Z,92.33
2022-10-11T03:52:15.148Z,92.50
2022-10-11T03:54:42.560Z,92.57
2022-10-11T03:57:10.209Z,92.33
2022-10-11T03:59:37.691Z,92.59
2022-10-11T04:02:05.163Z,91.69
2022-10-11T04:04:33.081Z,91.42
2022-10-11T04:07:00.540Z,91.40
2022-10-11T04:09:28.060Z,91.50
2022-10-11T04:11:55.704Z,91.79
2022-10-11T04:14:23.141Z,92.24
2022-10-11T04:16:50.565Z,91.97
2022-10-11T04:19:18.459Z,91.96
2022-10-11T04:21:46.183Z,91.40
2022-10-11T04:24:13.568Z,91.46
2022-10-11T04:26:41.281Z,91.02
2022-10-11T04:29:09.044Z,90.50
2022-10-11T04:31:36.464Z,91.01
2022-10-11T04:34:04.184Z,91.13
2022-10-11T04:36:33.886Z,90.92
2022-10-11T04:39:01.849Z,91.08
2022-10-11T04:41:29.522Z,90.86
2022-10-11T04:43:57.107Z,90.72
2022-10-11T04:46:24.780Z,91.22
2022-10-11T04:48:52.472Z,90.95
2022-10-11T04:51:20.280Z,90.46
2022-10-11T04:53:48.889Z,90.54
2022-10-11T04:56:18.471Z,90.35
2022-10-11T04:58:49.336Z,90.50
2022-10-11T05:01:17.040Z,90.74
2022-10-11T05:03:44.372Z,91.13
2022-10-11T05:06:12.259Z,91.35
2022-10-11T05:08:40.392Z,91.79
2022-10-11T05:11:11.078Z,91.65
2022-10-11T05:13:39.128Z,91.48
2022-10-11T05:16:10.866Z,91.30
2022-10-11T05:18:39.937Z,91.33
2022-10-11T05:21:14.932Z,91.27
2022-10-11T05:23:42.790Z,91.21
2022-10-11T05:26:10.575Z,91.01
2022-10-11T05:28:38.123Z,91.12
2022-10-11T05:31:06.343Z,91.71
2022-10-11T05:33:34.361Z,91.32
2022-10-11T05:36:02.278Z,91.33
2022-10-11T05:38:30.647Z,91.18
2022-10-11T05:41:02.918Z,91.24
2022-10-11T05:43:31.179Z,91.23
2022-10-11T05:45:59.155Z,91.45
2022-10-11T05:48:31.948Z,91.36
2022-10-11T05:51:05.110Z,90.70
2022-10-11T05:53:32.798Z,90.39
2022-10-11T05:56:00.585Z,90.42
2022-10-11T05:58:28.383Z,89.96
2022-10-11T06:00:57.045Z,89.60
2022-10-11T06:03:24.928Z,89.20
2022-10-11T06:05:56.787Z,89.22
2022-10-11T06:08:24.941Z,88.44
2022-10-11T06:10:52.262Z,87.88
2022-10-11T06:13:19.903Z,87.63
2022-10-11T06:15:47.547Z,86.99
2022-10-11T06:18:15.308Z,85.87
2022-10-11T06:20:42.740Z,85.75
2022-10-11T06:23:10.409Z,84.89
2022-10-11T06:25:37.757Z,84.30
2022-10-11T06:28:05.211Z,83.84
2022-10-11T06:30:32.912Z,83.85
2022-10-11T06:33:04.630Z,83.52
2022-10-11T06:35:32.880Z,82.69
2022-10-11T06:38:00.213Z,81.92
2022-10-11T06:40:27.719Z,81.85
2022-10-11T06:42:55.420Z,81.23
2022-10-11T06:45:22.837Z,80.08
2022-10-11T06:47:50.232Z,79.06
2022-10-11T06:50:29.906Z,79.49
2022-10-11T06:53:07.829Z,79.59
2022-10-11T06:55:35.504Z,79.44
2022-10-11T06:58:02.902Z,79.63
2022-10-11T07:00:30.918Z,79.20
2022-10-11T07:02:58.545Z,78.73
2022-10-11T07:05:26.157Z,78.95
2022-10-11T07:07:53.549Z,78.26
2022-10-11T07:10:21.295Z,78.91
2022-10-11T07:12:48.748Z,77.69
2022-10-11T07:15:16.194Z,77.78
2022-10-11T07:17:43.958Z,77.90
2022-10-11T07:20:12.302Z,76.52
2022-10-11T07:22:39.685Z,76.37
2022-10-11T07:25:07.760Z,73.85
2022-10-11T07:27:35.171Z,74.63
2022-10-11T07:30:02.920Z,73.97
2022-10-11T07:32:31.174Z,73.12
2022-10-11T07:34:58.522Z,72.94
2022-10-11T07:37:26.194Z,73.32
2022-10-11T07:39:58.845Z,71.22
2022-10-11T07:42:26.267Z,71.23
2022-10-11T07:44:53.947Z,70.45
2022-10-11T07:47:21.370Z,68.59
2022-10-11T07:49:49.203Z,67.65
2022-10-11T07:52:16.907Z,67.44
2022-10-11T07:54:44.777Z,67.42
2022-10-11T07:57:16.256Z,67.84
2022-10-11T07:59:49.292Z,68.34
2022-10-11T08:02:17.545Z,65.79
2022-10-11T08:04:45.182Z,67.38
2022-10-11T08:07:12.612Z,67.12
2022-10-11T08:09:40.731Z,66.00
2022-10-11T08:12:08.492Z,65.39
2022-10-11T08:14:35.894Z,64.41
2022-10-11T08:17:03.329Z,65.34
2022-10-11T08:19:31.370Z,62.89
2022-10-11T08:21:58.931Z,62.18
2022-10-11T08:24:26.344Z,61.35
2022-10-11T08:26:54.104Z,60.92
2022-10-11T08:29:21.485Z,60.24
2022-10-11T08:31:49.133Z,60.51
2022-10-11T08:34:16.820Z,60.71
2022-10-11T08:36:44.515Z,60.17
2022-10-11T08:39:11.919Z,61.25
2022-10-11T08:41:46.062Z,61.05
2022-10-11T08:44:20.824Z,61.58
2022-10-11T08:47:00.515Z,60.81
2022-10-11T08:49:32.495Z,60.50
2022-10-11T08:52:04.605Z,59.67
2022-10-11T08:54:57.885Z,58.44
2022-10-11T08:57:31.912Z,58.02
2022-10-11T09:00:04.644Z,58.56
2022-10-11T09:03:02.975Z,58.14
2022-10-11T09:05:30.853Z,57.23
2022-10-11T09:08:16.889Z,57.03
2022-10-11T09:11:09.745Z,57.17
2022-10-11T09:14:07.821Z,56.88
2022-10-11T09:17:04.498Z,56.51
2022-10-11T09:20:03.044Z,57.07
2022-10-11T09:22:50.211Z,56.12
2022-10-11T09:25:41.929Z,56.90
2022-10-11T09:28:24.621Z,56.81
2022-10-11T09:30:56.296Z,56.92
2022-10-11T09:33:42.349Z,56.43
2022-10-11T09:36:37.344Z,56.26
2022-10-11T09:39:29.337Z,56.23
2022-10-11T09:42:01.706Z,56.36
2022-10-11T09:44:33.931Z,55.90
2022-10-11T09:47:01.674Z,55.83
2022-10-11T09:49:58.283Z,56.49
2022-10-11T09:52:51.337Z,56.26
2022-10-11T09:55:52.439Z,56.84
2022-10-11T09:58:30.384Z,55.39
2022-10-11T10:01:08.283Z,54.33
2022-10-11T10:03:39.385Z,54.67
2022-10-11T10:06:15.953Z,55.01
2022-10-11T10:08:46.905Z,53.83
2022-10-11T10:11:14.704Z,53.78
2022-10-11T10:13:42.024Z,53.66
2022-10-11T10:16:22.975Z,53.97
2022-10-11T10:18:54.495Z,54.32
2022-10-11T10:21:35.431Z,55.36
2022-10-11T10:24:09.538Z,55.49
2022-10-11T10:26:37.341Z,54.77
2022-10-11T10:29:16.628Z,55.24
2022-10-11T10:35:09.295Z,55.70
2022-10-11T10:37:52.933Z,53.98
2022-10-11T10:40:32.507Z,52.77
2022-10-11T10:43:00.223Z,54.70
2022-10-11T10:45:52.364Z,55.50
2022-10-11T10:48:27.410Z,55.45
2022-10-11T10:50:58.894Z,56.10
2022-10-11T10:53:37.528Z,56.10
2022-10-11T10:56:31.372Z,55.36
2022-10-11T11:00:00.915Z,55.44
2022-10-11T11:02:47.214Z,55.15
2022-10-11T11:05:21.333Z,56.27
2022-10-11T11:08:01.746Z,55.68
2022-10-11T11:10:59.726Z,56.48
2022-10-11T11:13:54.740Z,56.15
2022-10-11T11:16:40.321Z,54.99
2022-10-11T11:19:32.664Z,55.35
2022-10-11T11:22:23.823Z,54.34
2022-10-11T11:25:15.989Z,53.82
2022-10-11T11:28:03.408Z,53.55
2022-10-11T11:30:48.495Z,53.31
2022-10-11T11:33:43.067Z,52.67
2022-10-11T11:36:24.349Z,53.53
2022-10-11T11:39:02.943Z,54.82
2022-10-11T11:41:42.816Z,53.66
2022-10-11T11:44:37.772Z,53.99
2022-10-11T11:47:29.241Z,53.49
2022-10-11T11:50:01.303Z,54.76
2022-10-11T11:52:44.780Z,53.48
2022-10-11T11:55:25.417Z,53.14
2022-10-11T11:58:25.071Z,53.95
2022-10-11T12:01:01.251Z,53.58
2022-10-11T12:03:41.382Z,52.97
2022-10-11T12:06:17.923Z,54.36
2022-10-11T12:08:55.453Z,54.29
2022-10-11T12:11:34.562Z,55.40
2022-10-11T12:14:27.403Z,54.04
2022-10-11T12:17:21.850Z,54.07
2022-10-11T12:20:09.081Z,53.69
2022-10-11T12:23:00.351Z,51.96
2022-10-11T12:25:28.682Z,53.31
2022-10-11T12:27:58.213Z,54.03
